sensor_id;sensor_type;location;lat;lon;timestamp;pressure;altitude;pressure_sealevel;temperature;humidity
50302;BME280;36550;50.472;19.744;2023-04-08T00:00:03;98286.00;;;2.36;89.44
50302;BME280;36550;50.472;19.744;2023-04-08T00:02:49;98287.98;;;2.32;89.18
50302;BME280;36550;50.472;19.744;2023-04-08T00:05:33;98286.79;;;2.28;88.94
50302;BME280;36550;50.472;19.744;2023-04-08T00:08:17;98287.37;;;2.20;88.84
50302;BME280;36550;50.472;19.744;2023-04-08T00:11:01;98293.45;;;2.10;88.77
50302;BME280;36550;50.472;19.744;2023-04-08T00:13:44;98293.44;;;1.99;88.87
50302;BME280;36550;50.472;19.744;2023-04-08T00:16:29;98293.50;;;1.89;88.94
50302;BME280;36550;50.472;19.744;2023-04-08T00:19:13;98293.17;;;1.83;88.70
50302;BME280;36550;50.472;19.744;2023-04-08T00:21:57;98296.54;;;1.76;88.55
50302;BME280;36550;50.472;19.744;2023-04-08T00:24:41;98296.30;;;1.69;88.39
50302;BME280;36550;50.472;19.744;2023-04-08T00:27:25;98299.23;;;1.64;88.33
50302;BME280;36550;50.472;19.744;2023-04-08T00:30:09;98302.46;;;1.58;88.26
50302;BME280;36550;50.472;19.744;2023-04-08T00:32:54;98307.58;;;1.49;88.26
50302;BME280;36550;50.472;19.744;2023-04-08T00:35:38;98313.30;;;1.41;88.32
50302;BME280;36550;50.472;19.744;2023-04-08T00:38:23;98312.02;;;1.32;88.47
50302;BME280;36550;50.472;19.744;2023-04-08T00:41:06;98313.13;;;1.25;88.32
50302;BME280;36550;50.472;19.744;2023-04-08T00:43:51;98316.81;;;1.18;88.45
50302;BME280;36550;50.472;19.744;2023-04-08T00:46:38;98318.19;;;1.10;88.72
50302;BME280;36550;50.472;19.744;2023-04-08T00:49:22;98318.68;;;1.03;88.92
50302;BME280;36550;50.472;19.744;2023-04-08T00:52:06;98319.07;;;0.94;88.87
50302;BME280;36550;50.472;19.744;2023-04-08T00:54:50;98321.98;;;0.88;88.86
50302;BME280;36550;50.472;19.744;2023-04-08T00:57:35;98325.58;;;0.86;88.90
50302;BME280;36550;50.472;19.744;2023-04-08T01:00:19;98332.54;;;0.90;89.08
50302;BME280;36550;50.472;19.744;2023-04-08T01:03:21;98334.34;;;0.94;89.53
50302;BME280;36550;50.472;19.744;2023-04-08T01:08:51;98333.05;;;1.11;89.38
50302;BME280;36550;50.472;19.744;2023-04-08T01:11:37;98331.92;;;1.22;89.42
50302;BME280;36550;50.472;19.744;2023-04-08T01:14:24;98336.80;;;1.31;89.55
50302;BME280;36550;50.472;19.744;2023-04-08T01:17:09;98339.45;;;1.35;89.52
50302;BME280;36550;50.472;19.744;2023-04-08T01:19:55;98343.17;;;1.41;89.57
50302;BME280;36550;50.472;19.744;2023-04-08T01:22:43;98341.09;;;1.44;90.03
50302;BME280;36550;50.472;19.744;2023-04-08T01:25:33;98339.53;;;1.47;90.52
50302;BME280;36550;50.472;19.744;2023-04-08T01:28:18;98340.95;;;1.47;90.71
50302;BME280;36550;50.472;19.744;2023-04-08T01:31:04;98338.48;;;1.47;91.03
50302;BME280;36550;50.472;19.744;2023-04-08T01:33:50;98337.89;;;1.46;91.15
50302;BME280;36550;50.472;19.744;2023-04-08T01:36:36;98338.66;;;1.47;90.75
50302;BME280;36550;50.472;19.744;2023-04-08T01:39:22;98340.06;;;1.50;90.86
50302;BME280;36550;50.472;19.744;2023-04-08T01:42:07;98339.46;;;1.56;90.66
50302;BME280;36550;50.472;19.744;2023-04-08T01:44:54;98336.83;;;1.58;90.87
50302;BME280;36550;50.472;19.744;2023-04-08T01:47:39;98337.84;;;1.60;91.11
50302;BME280;36550;50.472;19.744;2023-04-08T01:50:25;98335.26;;;1.63;90.92
50302;BME280;36550;50.472;19.744;2023-04-08T01:53:10;98336.77;;;1.68;90.76
50302;BME280;36550;50.472;19.744;2023-04-08T01:55:59;98339.38;;;1.74;90.61
50302;BME280;36550;50.472;19.744;2023-04-08T01:58:51;98337.08;;;1.76;91.02
50302;BME280;36550;50.472;19.744;2023-04-08T02:01:37;98336.19;;;1.78;90.97
50302;BME280;36550;50.472;19.744;2023-04-08T02:04:22;98335.11;;;1.81;90.77
50302;BME280;36550;50.472;19.744;2023-04-08T02:07:06;98334.88;;;1.88;90.57
50302;BME280;36550;50.472;19.744;2023-04-08T02:09:50;98334.45;;;1.93;90.65
50302;BME280;36550;50.472;19.744;2023-04-08T02:12:34;98335.36;;;1.96;90.81
50302;BME280;36550;50.472;19.744;2023-04-08T02:15:18;98338.02;;;2.00;90.68
50302;BME280;36550;50.472;19.744;2023-04-08T02:18:12;98337.05;;;2.04;90.74
50302;BME280;36550;50.472;19.744;2023-04-08T02:21:08;98337.05;;;2.06;90.66
50302;BME280;36550;50.472;19.744;2023-04-08T02:23:54;98340.91;;;2.07;90.86
50302;BME280;36550;50.472;19.744;2023-04-08T02:26:41;98340.75;;;2.08;90.93
50302;BME280;36550;50.472;19.744;2023-04-08T02:29:29;98344.66;;;2.09;90.93
50302;BME280;36550;50.472;19.744;2023-04-08T02:32:15;98340.65;;;2.08;91.07
50302;BME280;36550;50.472;19.744;2023-04-08T02:35:00;98339.90;;;2.10;90.97
50302;BME280;36550;50.472;19.744;2023-04-08T02:37:46;98336.55;;;2.12;90.93
50302;BME280;36550;50.472;19.744;2023-04-08T02:40:33;98339.98;;;2.17;91.04
50302;BME280;36550;50.472;19.744;2023-04-08T02:43:18;98346.81;;;2.20;90.94
50302;BME280;36550;50.472;19.744;2023-04-08T02:46:02;98346.29;;;2.22;90.97
50302;BME280;36550;50.472;19.744;2023-04-08T02:48:46;98346.70;;;2.25;90.85
50302;BME280;36550;50.472;19.744;2023-04-08T02:51:30;98346.63;;;2.30;90.79
50302;BME280;36550;50.472;19.744;2023-04-08T02:54:15;98346.17;;;2.34;90.83
50302;BME280;36550;50.472;19.744;2023-04-08T02:56:59;98349.13;;;2.38;90.73
50302;BME280;36550;50.472;19.744;2023-04-08T02:59:43;98346.23;;;2.41;90.85
50302;BME280;36550;50.472;19.744;2023-04-08T03:02:27;98346.55;;;2.44;90.77
50302;BME280;36550;50.472;19.744;2023-04-08T03:05:11;98349.11;;;2.49;90.64
50302;BME280;36550;50.472;19.744;2023-04-08T03:07:55;98345.44;;;2.51;90.97
50302;BME280;36550;50.472;19.744;2023-04-08T03:10:39;98351.95;;;2.55;90.89
50302;BME280;36550;50.472;19.744;2023-04-08T03:13:23;98350.66;;;2.58;90.73
50302;BME280;36550;50.472;19.744;2023-04-08T03:16:07;98353.03;;;2.62;90.51
50302;BME280;36550;50.472;19.744;2023-04-08T03:18:51;98348.23;;;2.65;90.61
50302;BME280;36550;50.472;19.744;2023-04-08T03:21:35;98348.39;;;2.66;90.57
50302;BME280;36550;50.472;19.744;2023-04-08T03:24:18;98348.45;;;2.65;90.60
50302;BME280;36550;50.472;19.744;2023-04-08T03:27:02;98347.66;;;2.63;90.71
50302;BME280;36550;50.472;19.744;2023-04-08T03:29:47;98348.06;;;2.62;90.70
50302;BME280;36550;50.472;19.744;2023-04-08T03:32:31;98350.26;;;2.61;90.70
50302;BME280;36550;50.472;19.744;2023-04-08T03:35:16;98352.45;;;2.61;90.77
50302;BME280;36550;50.472;19.744;2023-04-08T03:38:00;98357.16;;;2.62;90.74
50302;BME280;36550;50.472;19.744;2023-04-08T03:40:44;98365.50;;;2.60;91.07
50302;BME280;36550;50.472;19.744;2023-04-08T03:43:28;98370.02;;;2.58;91.15
50302;BME280;36550;50.472;19.744;2023-04-08T03:46:12;98373.18;;;2.56;91.17
50302;BME280;36550;50.472;19.744;2023-04-08T03:48:56;98371.89;;;2.56;91.18
50302;BME280;36550;50.472;19.744;2023-04-08T03:51:40;98372.27;;;2.57;91.05
50302;BME280;36550;50.472;19.744;2023-04-08T03:54:23;98369.48;;;2.59;90.93
50302;BME280;36550;50.472;19.744;2023-04-08T03:57:07;98371.48;;;2.61;90.80
50302;BME280;36550;50.472;19.744;2023-04-08T03:59:51;98373.47;;;2.63;90.94
50302;BME280;36550;50.472;19.744;2023-04-08T04:02:35;98374.02;;;2.66;90.93
50302;BME280;36550;50.472;19.744;2023-04-08T04:05:19;98374.14;;;2.68;90.91
50302;BME280;36550;50.472;19.744;2023-04-08T04:08:03;98378.83;;;2.68;90.91
50302;BME280;36550;50.472;19.744;2023-04-08T04:10:47;98386.61;;;2.71;90.89
50302;BME280;36550;50.472;19.744;2023-04-08T04:13:31;98388.42;;;2.74;90.73
50302;BME280;36550;50.472;19.744;2023-04-08T04:16:15;98387.48;;;2.80;90.57
50302;BME280;36550;50.472;19.744;2023-04-08T04:18:59;98390.48;;;2.83;90.51
50302;BME280;36550;50.472;19.744;2023-04-08T04:21:43;98393.91;;;2.88;90.41
50302;BME280;36550;50.472;19.744;2023-04-08T04:24:27;98400.06;;;2.89;90.34
50302;BME280;36550;50.472;19.744;2023-04-08T04:27:11;98401.54;;;2.86;90.31
50302;BME280;36550;50.472;19.744;2023-04-08T04:29:54;98407.81;;;2.85;90.17
50302;BME280;36550;50.472;19.744;2023-04-08T04:32:39;98411.64;;;2.84;90.30
50302;BME280;36550;50.472;19.744;2023-04-08T04:35:23;98421.17;;;2.87;90.21
50302;BME280;36550;50.472;19.744;2023-04-08T04:38:07;98422.23;;;2.90;90.18
50302;BME280;36550;50.472;19.744;2023-04-08T04:40:54;98421.26;;;2.94;90.18
50302;BME280;36550;50.472;19.744;2023-04-08T04:43:38;98426.86;;;2.96;90.14
50302;BME280;36550;50.472;19.744;2023-04-08T04:46:23;98426.82;;;2.98;90.08
50302;BME280;36550;50.472;19.744;2023-04-08T04:49:07;98432.16;;;2.99;90.15
50302;BME280;36550;50.472;19.744;2023-04-08T04:51:51;98436.64;;;3.00;90.01
50302;BME280;36550;50.472;19.744;2023-04-08T04:54:35;98437.30;;;3.05;89.95
50302;BME280;36550;50.472;19.744;2023-04-08T04:57:18;98439.46;;;3.09;89.88
50302;BME280;36550;50.472;19.744;2023-04-08T05:00:03;98438.05;;;3.12;89.83
50302;BME280;36550;50.472;19.744;2023-04-08T05:02:47;98440.00;;;3.15;89.78
50302;BME280;36550;50.472;19.744;2023-04-08T05:05:32;98438.19;;;3.14;89.77
50302;BME280;36550;50.472;19.744;2023-04-08T05:08:16;98442.38;;;3.14;89.71
50302;BME280;36550;50.472;19.744;2023-04-08T05:10:59;98446.17;;;3.17;89.76
50302;BME280;36550;50.472;19.744;2023-04-08T05:13:44;98453.88;;;3.23;89.65
50302;BME280;36550;50.472;19.744;2023-04-08T05:16:29;98456.52;;;3.32;89.64
50302;BME280;36550;50.472;19.744;2023-04-08T05:19:12;98458.09;;;3.44;89.54
50302;BME280;36550;50.472;19.744;2023-04-08T05:21:56;98459.40;;;3.52;89.36
50302;BME280;36550;50.472;19.744;2023-04-08T05:24:40;98465.83;;;3.58;89.34
50302;BME280;36550;50.472;19.744;2023-04-08T05:27:24;98469.02;;;3.63;89.23
50302;BME280;36550;50.472;19.744;2023-04-08T05:30:08;98473.30;;;3.70;89.15
50302;BME280;36550;50.472;19.744;2023-04-08T05:32:52;98471.29;;;3.75;89.08
50302;BME280;36550;50.472;19.744;2023-04-08T05:35:36;98475.39;;;3.79;88.88
50302;BME280;36550;50.472;19.744;2023-04-08T05:38:20;98476.04;;;3.80;88.76
50302;BME280;36550;50.472;19.744;2023-04-08T05:41:04;98474.02;;;3.84;88.92
50302;BME280;36550;50.472;19.744;2023-04-08T05:43:48;98478.96;;;3.90;88.90
50302;BME280;36550;50.472;19.744;2023-04-08T05:46:32;98482.39;;;3.96;88.78
50302;BME280;36550;50.472;19.744;2023-04-08T05:49:16;98486.86;;;4.00;88.62
50302;BME280;36550;50.472;19.744;2023-04-08T05:52:00;98489.27;;;4.08;88.71
50302;BME280;36550;50.472;19.744;2023-04-08T05:54:44;98493.00;;;4.13;88.40
50302;BME280;36550;50.472;19.744;2023-04-08T05:57:28;98495.92;;;4.13;87.87
50302;BME280;36550;50.472;19.744;2023-04-08T06:00:13;98496.97;;;4.13;87.69
50302;BME280;36550;50.472;19.744;2023-04-08T06:02:57;98499.67;;;4.11;87.44
50302;BME280;36550;50.472;19.744;2023-04-08T06:05:41;98501.68;;;4.10;87.31
50302;BME280;36550;50.472;19.744;2023-04-08T06:08:24;98506.02;;;4.19;87.35
50302;BME280;36550;50.472;19.744;2023-04-08T06:11:09;98507.00;;;4.30;87.36
50302;BME280;36550;50.472;19.744;2023-04-08T06:13:52;98510.66;;;4.38;87.36
50302;BME280;36550;50.472;19.744;2023-04-08T06:16:37;98518.73;;;4.46;87.28
50302;BME280;36550;50.472;19.744;2023-04-08T06:19:20;98519.27;;;4.53;87.39
50302;BME280;36550;50.472;19.744;2023-04-08T06:22:04;98524.30;;;4.59;87.58
50302;BME280;36550;50.472;19.744;2023-04-08T06:24:49;98530.38;;;4.66;87.29
50302;BME280;36550;50.472;19.744;2023-04-08T06:27:32;98527.70;;;4.67;86.57
50302;BME280;36550;50.472;19.744;2023-04-08T06:30:17;98531.90;;;4.64;85.75
50302;BME280;36550;50.472;19.744;2023-04-08T06:33:01;98533.27;;;4.64;85.76
50302;BME280;36550;50.472;19.744;2023-04-08T06:35:45;98537.30;;;4.66;85.78
50302;BME280;36550;50.472;19.744;2023-04-08T06:38:29;98538.88;;;4.72;85.70
50302;BME280;36550;50.472;19.744;2023-04-08T06:41:14;98546.80;;;4.75;85.47
50302;BME280;36550;50.472;19.744;2023-04-08T06:43:58;98551.05;;;4.80;85.29
50302;BME280;36550;50.472;19.744;2023-04-08T06:46:43;98552.71;;;4.82;85.28
50302;BME280;36550;50.472;19.744;2023-04-08T06:49:27;98556.14;;;4.85;85.11
50302;BME280;36550;50.472;19.744;2023-04-08T06:52:11;98554.03;;;4.86;85.18
50302;BME280;36550;50.472;19.744;2023-04-08T06:54:55;98553.71;;;4.81;84.27
50302;BME280;36550;50.472;19.744;2023-04-08T06:57:38;98553.27;;;4.82;84.34
50302;BME280;36550;50.472;19.744;2023-04-08T07:00:22;98555.19;;;4.91;85.02
50302;BME280;36550;50.472;19.744;2023-04-08T07:03:06;98558.38;;;4.99;84.78
50302;BME280;36550;50.472;19.744;2023-04-08T07:05:50;98559.23;;;5.06;84.35
50302;BME280;36550;50.472;19.744;2023-04-08T07:08:34;98563.73;;;5.12;83.68
50302;BME280;36550;50.472;19.744;2023-04-08T07:11:19;98562.95;;;5.22;84.03
50302;BME280;36550;50.472;19.744;2023-04-08T07:14:04;98561.67;;;5.45;84.47
50302;BME280;36550;50.472;19.744;2023-04-08T07:16:47;98564.20;;;5.66;83.08
50302;BME280;36550;50.472;19.744;2023-04-08T07:19:31;98565.59;;;5.78;82.17
50302;BME280;36550;50.472;19.744;2023-04-08T07:22:15;98567.95;;;5.86;81.40
50302;BME280;36550;50.472;19.744;2023-04-08T07:25:00;98565.81;;;5.93;81.00
50302;BME280;36550;50.472;19.744;2023-04-08T07:27:44;98566.77;;;6.00;80.75
50302;BME280;36550;50.472;19.744;2023-04-08T07:30:28;98563.33;;;6.08;80.34
50302;BME280;36550;50.472;19.744;2023-04-08T07:33:12;98568.06;;;6.17;80.34
50302;BME280;36550;50.472;19.744;2023-04-08T07:35:57;98571.36;;;6.16;79.96
50302;BME280;36550;50.472;19.744;2023-04-08T07:38:42;98573.05;;;6.19;79.39
50302;BME280;36550;50.472;19.744;2023-04-08T07:41:25;98580.31;;;6.26;79.98
50302;BME280;36550;50.472;19.744;2023-04-08T07:44:09;98582.05;;;6.43;80.00
50302;BME280;36550;50.472;19.744;2023-04-08T07:46:53;98582.64;;;6.66;79.89
50302;BME280;36550;50.472;19.744;2023-04-08T07:49:38;98582.23;;;6.76;79.59
50302;BME280;36550;50.472;19.744;2023-04-08T07:52:22;98585.81;;;6.92;79.99
50302;BME280;36550;50.472;19.744;2023-04-08T07:55:06;98588.60;;;7.04;79.70
50302;BME280;36550;50.472;19.744;2023-04-08T07:57:50;98592.81;;;7.10;79.98
50302;BME280;36550;50.472;19.744;2023-04-08T08:00:34;98597.16;;;7.20;79.73
50302;BME280;36550;50.472;19.744;2023-04-08T08:03:18;98595.94;;;7.31;79.30
50302;BME280;36550;50.472;19.744;2023-04-08T08:06:02;98599.20;;;7.35;77.53
50302;BME280;36550;50.472;19.744;2023-04-08T08:08:46;98606.50;;;7.53;77.93
50302;BME280;36550;50.472;19.744;2023-04-08T08:11:30;98613.34;;;7.62;77.85
50302;BME280;36550;50.472;19.744;2023-04-08T08:14:15;98612.14;;;7.67;77.95
50302;BME280;36550;50.472;19.744;2023-04-08T08:16:59;98614.35;;;7.75;76.64
50302;BME280;36550;50.472;19.744;2023-04-08T08:19:44;98616.20;;;7.83;76.15
50302;BME280;36550;50.472;19.744;2023-04-08T08:22:28;98614.64;;;7.80;76.37
50302;BME280;36550;50.472;19.744;2023-04-08T08:25:12;98616.02;;;7.71;76.97
50302;BME280;36550;50.472;19.744;2023-04-08T08:27:56;98621.25;;;7.65;75.74
50302;BME280;36550;50.472;19.744;2023-04-08T08:30:40;98620.81;;;7.62;76.23
50302;BME280;36550;50.472;19.744;2023-04-08T08:33:25;98623.02;;;7.61;75.63
50302;BME280;36550;50.472;19.744;2023-04-08T08:36:09;98623.75;;;7.68;75.79
50302;BME280;36550;50.472;19.744;2023-04-08T08:38:53;98627.21;;;7.72;74.91
50302;BME280;36550;50.472;19.744;2023-04-08T08:41:37;98624.47;;;7.76;74.36
50302;BME280;36550;50.472;19.744;2023-04-08T08:44:22;98623.64;;;7.87;74.77
50302;BME280;36550;50.472;19.744;2023-04-08T08:47:06;98622.70;;;8.01;75.20
50302;BME280;36550;50.472;19.744;2023-04-08T08:49:49;98620.40;;;8.11;74.26
50302;BME280;36550;50.472;19.744;2023-04-08T08:52:34;98620.63;;;8.17;74.58
50302;BME280;36550;50.472;19.744;2023-04-08T08:55:18;98619.13;;;8.30;75.15
50302;BME280;36550;50.472;19.744;2023-04-08T08:58:03;98621.52;;;8.35;74.60
50302;BME280;36550;50.472;19.744;2023-04-08T09:00:47;98624.48;;;8.26;72.69
50302;BME280;36550;50.472;19.744;2023-04-08T09:03:31;98624.00;;;8.20;73.47
50302;BME280;36550;50.472;19.744;2023-04-08T09:06:17;98629.79;;;8.24;74.12
50302;BME280;36550;50.472;19.744;2023-04-08T09:09:01;98631.03;;;8.33;74.14
50302;BME280;36550;50.472;19.744;2023-04-08T09:11:48;98644.83;;;8.48;73.77
50302;BME280;36550;50.472;19.744;2023-04-08T09:14:32;98646.11;;;8.67;74.07
50302;BME280;36550;50.472;19.744;2023-04-08T09:17:30;98646.48;;;8.89;74.20
50302;BME280;36550;50.472;19.744;2023-04-08T09:20:15;98645.83;;;9.01;72.65
50302;BME280;36550;50.472;19.744;2023-04-08T09:23:00;98649.20;;;9.02;70.74
50302;BME280;36550;50.472;19.744;2023-04-08T09:25:45;98652.66;;;9.13;72.42
50302;BME280;36550;50.472;19.744;2023-04-08T09:28:29;98657.27;;;9.26;72.41
50302;BME280;36550;50.472;19.744;2023-04-08T09:31:21;98654.81;;;9.33;71.51
50302;BME280;36550;50.472;19.744;2023-04-08T09:34:13;98659.46;;;9.40;71.72
50302;BME280;36550;50.472;19.744;2023-04-08T09:36:59;98659.37;;;9.47;71.36
50302;BME280;36550;50.472;19.744;2023-04-08T09:39:43;98660.83;;;9.53;71.28
50302;BME280;36550;50.472;19.744;2023-04-08T09:42:27;98658.73;;;9.65;70.57
50302;BME280;36550;50.472;19.744;2023-04-08T09:45:11;98661.67;;;9.76;69.95
50302;BME280;36550;50.472;19.744;2023-04-08T09:48:09;98663.56;;;9.89;70.88
50302;BME280;36550;50.472;19.744;2023-04-08T09:50:56;98665.48;;;9.91;69.95
50302;BME280;36550;50.472;19.744;2023-04-08T09:53:46;98659.88;;;9.90;69.86
50302;BME280;36550;50.472;19.744;2023-04-08T09:56:44;98660.09;;;9.85;68.83
50302;BME280;36550;50.472;19.744;2023-04-08T09:59:33;98660.54;;;9.80;68.29
50302;BME280;36550;50.472;19.744;2023-04-08T10:02:24;98660.61;;;9.84;69.12
50302;BME280;36550;50.472;19.744;2023-04-08T10:05:13;98660.30;;;9.95;69.00
50302;BME280;36550;50.472;19.744;2023-04-08T10:07:58;98659.13;;;10.04;68.69
50302;BME280;36550;50.472;19.744;2023-04-08T10:10:43;98664.83;;;10.17;69.39
50302;BME280;36550;50.472;19.744;2023-04-08T10:13:28;98657.46;;;10.30;69.38
50302;BME280;36550;50.472;19.744;2023-04-08T10:18:59;98667.35;;;10.53;69.76
50302;BME280;36550;50.472;19.744;2023-04-08T10:21:43;98668.78;;;10.47;69.47
50302;BME280;36550;50.472;19.744;2023-04-08T10:24:33;98670.61;;;10.25;67.39
50302;BME280;36550;50.472;19.744;2023-04-08T10:27:38;98663.62;;;9.94;67.05
50302;BME280;36550;50.472;19.744;2023-04-08T10:33:15;98661.23;;;9.46;67.25
50302;BME280;36550;50.472;19.744;2023-04-08T10:38:50;98662.04;;;9.12;67.49
50302;BME280;36550;50.472;19.744;2023-04-08T10:41:33;98659.95;;;8.95;68.28
50302;BME280;36550;50.472;19.744;2023-04-08T10:44:23;98657.35;;;8.92;69.30
50302;BME280;36550;50.472;19.744;2023-04-08T10:47:07;98657.30;;;8.94;69.89
50302;BME280;36550;50.472;19.744;2023-04-08T10:49:51;98656.95;;;8.88;69.71
50302;BME280;36550;50.472;19.744;2023-04-08T10:52:47;98654.98;;;8.79;69.62
50302;BME280;36550;50.472;19.744;2023-04-08T10:55:32;98656.27;;;8.78;70.21
50302;BME280;36550;50.472;19.744;2023-04-08T10:58:16;98661.73;;;8.78;70.01
50302;BME280;36550;50.472;19.744;2023-04-08T11:01:06;98669.39;;;8.66;70.09
50302;BME280;36550;50.472;19.744;2023-04-08T11:03:51;98665.56;;;8.48;70.25
50302;BME280;36550;50.472;19.744;2023-04-08T11:06:35;98663.24;;;8.39;70.53
50302;BME280;36550;50.472;19.744;2023-04-08T11:09:19;98667.08;;;8.40;70.58
50302;BME280;36550;50.472;19.744;2023-04-08T11:12:03;98664.58;;;8.35;70.62
50302;BME280;36550;50.472;19.744;2023-04-08T11:14:47;98667.13;;;8.41;71.16
50302;BME280;36550;50.472;19.744;2023-04-08T11:17:33;98668.23;;;8.43;71.13
50302;BME280;36550;50.472;19.744;2023-04-08T11:20:17;98671.62;;;8.40;71.45
50302;BME280;36550;50.472;19.744;2023-04-08T11:23:02;98674.96;;;8.35;71.58
50302;BME280;36550;50.472;19.744;2023-04-08T11:25:46;98669.17;;;8.23;70.90
50302;BME280;36550;50.472;19.744;2023-04-08T11:28:30;98667.45;;;8.20;71.54
50302;BME280;36550;50.472;19.744;2023-04-08T11:31:15;98665.16;;;8.25;72.03
50302;BME280;36550;50.472;19.744;2023-04-08T11:33:59;98667.69;;;8.30;72.36
50302;BME280;36550;50.472;19.744;2023-04-08T11:36:43;98665.02;;;8.34;72.61
50302;BME280;36550;50.472;19.744;2023-04-08T11:39:27;98664.02;;;8.33;72.45
50302;BME280;36550;50.472;19.744;2023-04-08T11:42:31;98660.65;;;8.40;72.28
50302;BME280;36550;50.472;19.744;2023-04-08T11:45:17;98659.76;;;8.51;72.27
50302;BME280;36550;50.472;19.744;2023-04-08T11:48:13;98664.47;;;8.63;72.12
50302;BME280;36550;50.472;19.744;2023-04-08T11:51:07;98668.55;;;8.65;72.58
50302;BME280;36550;50.472;19.744;2023-04-08T11:53:51;98667.33;;;8.63;72.48
50302;BME280;36550;50.472;19.744;2023-04-08T11:56:45;98664.94;;;8.54;72.26
50302;BME280;36550;50.472;19.744;2023-04-08T11:59:29;98661.92;;;8.41;72.17
50302;BME280;36550;50.472;19.744;2023-04-08T12:02:14;98657.46;;;8.28;72.41
50302;BME280;36550;50.472;19.744;2023-04-08T12:04:57;98661.79;;;8.23;72.74
50302;BME280;36550;50.472;19.744;2023-04-08T12:07:42;98665.41;;;8.18;72.87
50302;BME280;36550;50.472;19.744;2023-04-08T12:10:27;98660.98;;;8.19;73.10
50302;BME280;36550;50.472;19.744;2023-04-08T12:13:11;98650.34;;;8.30;73.10
50302;BME280;36550;50.472;19.744;2023-04-08T12:15:55;98651.66;;;8.36;73.22
50302;BME280;36550;50.472;19.744;2023-04-08T12:18:39;98651.20;;;8.44;73.32
50302;BME280;36550;50.472;19.744;2023-04-08T12:21:23;98654.23;;;8.49;73.25
50302;BME280;36550;50.472;19.744;2023-04-08T12:24:07;98649.36;;;8.57;73.53
50302;BME280;36550;50.472;19.744;2023-04-08T12:26:51;98656.08;;;8.60;73.69
50302;BME280;36550;50.472;19.744;2023-04-08T12:29:34;98650.70;;;8.62;73.61
50302;BME280;36550;50.472;19.744;2023-04-08T12:32:18;98645.45;;;8.73;73.78
50302;BME280;36550;50.472;19.744;2023-04-08T12:35:02;98645.58;;;8.80;73.66
50302;BME280;36550;50.472;19.744;2023-04-08T12:37:46;98647.77;;;8.78;73.60
50302;BME280;36550;50.472;19.744;2023-04-08T12:40:30;98645.10;;;8.73;73.71
50302;BME280;36550;50.472;19.744;2023-04-08T12:43:14;98644.81;;;8.73;73.74
50302;BME280;36550;50.472;19.744;2023-04-08T12:45:58;98641.17;;;8.76;73.77
50302;BME280;36550;50.472;19.744;2023-04-08T12:48:43;98645.23;;;8.80;73.66
50302;BME280;36550;50.472;19.744;2023-04-08T12:51:28;98641.88;;;8.80;73.66
50302;BME280;36550;50.472;19.744;2023-04-08T12:54:12;98641.80;;;8.80;73.75
50302;BME280;36550;50.472;19.744;2023-04-08T12:56:55;98642.48;;;8.82;73.99
50302;BME280;36550;50.472;19.744;2023-04-08T12:59:40;98641.10;;;8.94;74.00
50302;BME280;36550;50.472;19.744;2023-04-08T13:02:24;98635.48;;;9.05;73.86
50302;BME280;36550;50.472;19.744;2023-04-08T13:05:10;98637.46;;;9.16;74.03
50302;BME280;36550;50.472;19.744;2023-04-08T13:07:53;98636.73;;;9.23;74.07
50302;BME280;36550;50.472;19.744;2023-04-08T13:10:38;98635.92;;;9.33;74.15
50302;BME280;36550;50.472;19.744;2023-04-08T13:13:22;98633.23;;;9.42;74.05
50302;BME280;36550;50.472;19.744;2023-04-08T13:16:06;98631.55;;;9.49;73.61
50302;BME280;36550;50.472;19.744;2023-04-08T13:18:50;98624.09;;;9.61;73.83
50302;BME280;36550;50.472;19.744;2023-04-08T13:21:35;98625.92;;;9.74;73.45
50302;BME280;36550;50.472;19.744;2023-04-08T13:24:18;98626.46;;;9.83;73.40
50302;BME280;36550;50.472;19.744;2023-04-08T13:27:02;98621.88;;;9.96;73.56
50302;BME280;36550;50.472;19.744;2023-04-08T13:29:46;98618.88;;;10.07;73.28
50302;BME280;36550;50.472;19.744;2023-04-08T13:32:30;98618.25;;;10.18;72.96
50302;BME280;36550;50.472;19.744;2023-04-08T13:35:14;98614.61;;;10.19;71.92
50302;BME280;36550;50.472;19.744;2023-04-08T13:37:58;98616.34;;;10.12;71.75
50302;BME280;36550;50.472;19.744;2023-04-08T13:40:42;98614.46;;;10.05;71.49
50302;BME280;36550;50.472;19.744;2023-04-08T13:43:27;98616.16;;;10.09;72.34
50302;BME280;36550;50.472;19.744;2023-04-08T13:46:12;98622.10;;;10.04;71.98
50302;BME280;36550;50.472;19.744;2023-04-08T13:48:56;98619.40;;;9.99;72.03
50302;BME280;36550;50.472;19.744;2023-04-08T13:51:40;98615.88;;;9.96;71.96
50302;BME280;36550;50.472;19.744;2023-04-08T13:54:23;98618.67;;;9.94;72.16
50302;BME280;36550;50.472;19.744;2023-04-08T13:57:07;98619.36;;;9.90;72.22
50302;BME280;36550;50.472;19.744;2023-04-08T13:59:51;98615.86;;;9.88;72.62
50302;BME280;36550;50.472;19.744;2023-04-08T14:02:35;98619.94;;;9.82;72.58
50302;BME280;36550;50.472;19.744;2023-04-08T14:05:19;98619.89;;;9.74;72.51
50302;BME280;36550;50.472;19.744;2023-04-08T14:08:04;98618.54;;;9.59;72.01
50302;BME280;36550;50.472;19.744;2023-04-08T14:10:48;98615.16;;;9.52;72.19
50302;BME280;36550;50.472;19.744;2023-04-08T14:13:32;98621.48;;;9.40;72.51
50302;BME280;36550;50.472;19.744;2023-04-08T14:16:16;98623.73;;;9.32;72.83
50302;BME280;36550;50.472;19.744;2023-04-08T14:19:01;98622.60;;;9.22;72.64
50302;BME280;36550;50.472;19.744;2023-04-08T14:21:46;98626.23;;;9.14;72.86
50302;BME280;36550;50.472;19.744;2023-04-08T14:24:57;98628.27;;;9.03;72.95
50302;BME280;36550;50.472;19.744;2023-04-08T14:27:41;98632.07;;;8.95;73.10
50302;BME280;36550;50.472;19.744;2023-04-08T14:30:25;98631.27;;;8.88;73.25
50302;BME280;36550;50.472;19.744;2023-04-08T14:33:09;98629.56;;;8.80;73.39
50302;BME280;36550;50.472;19.744;2023-04-08T14:35:53;98626.43;;;8.76;73.65
50302;BME280;36550;50.472;19.744;2023-04-08T14:38:37;98624.91;;;8.74;73.55
50302;BME280;36550;50.472;19.744;2023-04-08T14:41:22;98629.67;;;8.73;73.69
50302;BME280;36550;50.472;19.744;2023-04-08T14:44:09;98626.08;;;8.76;73.79